sensor_id;sensor_type;location;lat;lon;timestamp;temperature;humidity
25112;DHT22;13092;51.996;4.458;2022-07-21T00:02:05;21.80;99.90
25112;DHT22;13092;51.996;4.458;2022-07-21T00:04:33;21.80;99.90
25112;DHT22;13092;51.996;4.458;2022-07-21T00:07:01;21.80;99.90
25112;DHT22;13092;51.996;4.458;2022-07-21T00:09:29;21.80;99.90
25112;DHT22;13092;51.996;4.458;2022-07-21T00:11:57;21.70;99.90
25112;DHT22;13092;51.996;4.458;2022-07-21T00:14:26;21.80;99.90
25112;DHT22;13092;51.996;4.458;2022-07-21T00:16:54;21.70;99.90
25112;DHT22;13092;51.996;4.458;2022-07-21T00:19:23;21.60;99.90
25112;DHT22;13092;51.996;4.458;2022-07-21T00:21:51;21.70;99.90
25112;DHT22;13092;51.996;4.458;2022-07-21T00:24:19;21.70;99.90
25112;DHT22;13092;51.996;4.458;2022-07-21T00:26:48;21.80;99.90
25112;DHT22;13092;51.996;4.458;2022-07-21T00:29:17;21.70;99.90
25112;DHT22;13092;51.996;4.458;2022-07-21T00:31:45;21.60;99.90
25112;DHT22;13092;51.996;4.458;2022-07-21T00:34:13;21.60;99.90
25112;DHT22;13092;51.996;4.458;2022-07-21T00:36:43;21.60;99.90
25112;DHT22;13092;51.996;4.458;2022-07-21T00:39:11;21.80;99.90
25112;DHT22;13092;51.996;4.458;2022-07-21T00:41:39;21.80;99.90
25112;DHT22;13092;51.996;4.458;2022-07-21T00:44:19;21.70;99.90
25112;DHT22;13092;51.996;4.458;2022-07-21T00:46:50;21.70;99.90
25112;DHT22;13092;51.996;4.458;2022-07-21T00:49:19;21.80;99.90
25112;DHT22;13092;51.996;4.458;2022-07-21T00:51:49;21.70;99.90
25112;DHT22;13092;51.996;4.458;2022-07-21T00:54:18;21.70;99.90
25112;DHT22;13092;51.996;4.458;2022-07-21T00:56:47;21.70;99.90
25112;DHT22;13092;51.996;4.458;2022-07-21T00:59:15;21.90;99.90
25112;DHT22;13092;51.996;4.458;2022-07-21T01:01:43;21.70;99.90
25112;DHT22;13092;51.996;4.458;2022-07-21T01:04:13;21.80;99.90
25112;DHT22;13092;51.996;4.458;2022-07-21T01:06:41;21.90;99.90
25112;DHT22;13092;51.996;4.458;2022-07-21T01:09:11;21.80;99.90
25112;DHT22;13092;51.996;4.458;2022-07-21T01:11:39;21.80;99.90
25112;DHT22;13092;51.996;4.458;2022-07-21T01:14:08;21.70;99.90
25112;DHT22;13092;51.996;4.458;2022-07-21T01:16:36;21.80;99.90
25112;DHT22;13092;51.996;4.458;2022-07-21T01:19:05;21.70;99.90
25112;DHT22;13092;51.996;4.458;2022-07-21T01:21:37;21.80;99.90
25112;DHT22;13092;51.996;4.458;2022-07-21T01:24:06;21.80;99.90
25112;DHT22;13092;51.996;4.458;2022-07-21T01:26:40;21.90;99.90
25112;DHT22;13092;51.996;4.458;2022-07-21T01:29:09;21.90;99.90
25112;DHT22;13092;51.996;4.458;2022-07-21T01:31:40;21.90;99.90
25112;DHT22;13092;51.996;4.458;2022-07-21T01:34:09;21.90;99.90
25112;DHT22;13092;51.996;4.458;2022-07-21T01:36:40;21.90;99.90
25112;DHT22;13092;51.996;4.458;2022-07-21T01:39:12;21.90;99.90
25112;DHT22;13092;51.996;4.458;2022-07-21T01:41:58;21.90;99.90
25112;DHT22;13092;51.996;4.458;2022-07-21T01:44:26;21.90;99.90
25112;DHT22;13092;51.996;4.458;2022-07-21T01:46:55;21.90;99.90
25112;DHT22;13092;51.996;4.458;2022-07-21T01:49:23;21.90;99.90
25112;DHT22;13092;51.996;4.458;2022-07-21T01:51:53;21.80;99.90
25112;DHT22;13092;51.996;4.458;2022-07-21T01:54:21;21.90;99.90
25112;DHT22;13092;51.996;4.458;2022-07-21T01:56:50;21.90;99.90
25112;DHT22;13092;51.996;4.458;2022-07-21T01:59:19;22.00;99.90
25112;DHT22;13092;51.996;4.458;2022-07-21T02:01:47;22.00;99.90
25112;DHT22;13092;51.996;4.458;2022-07-21T02:04:15;22.00;99.90
25112;DHT22;13092;51.996;4.458;2022-07-21T02:06:44;22.00;99.90
25112;DHT22;13092;51.996;4.458;2022-07-21T02:09:13;22.00;99.90
25112;DHT22;13092;51.996;4.458;2022-07-21T02:11:42;21.90;99.90
25112;DHT22;13092;51.996;4.458;2022-07-21T02:14:11;21.90;99.90
25112;DHT22;13092;51.996;4.458;2022-07-21T02:16:39;21.90;99.90
25112;DHT22;13092;51.996;4.458;2022-07-21T02:19:08;21.90;99.90
25112;DHT22;13092;51.996;4.458;2022-07-21T02:21:36;21.90;99.90
25112;DHT22;13092;51.996;4.458;2022-07-21T02:24:05;21.90;99.90
25112;DHT22;13092;51.996;4.458;2022-07-21T02:26:35;21.90;99.90
25112;DHT22;13092;51.996;4.458;2022-07-21T02:29:03;21.90;99.90
25112;DHT22;13092;51.996;4.458;2022-07-21T02:31:31;21.90;99.90
25112;DHT22;13092;51.996;4.458;2022-07-21T02:34:02;21.90;99.90
25112;DHT22;13092;51.996;4.458;2022-07-21T02:36:32;21.90;99.90
25112;DHT22;13092;51.996;4.458;2022-07-21T02:39:01;21.90;99.90
25112;DHT22;13092;51.996;4.458;2022-07-21T02:41:29;21.80;99.90
25112;DHT22;13092;51.996;4.458;2022-07-21T02:44:00;22.00;99.90
25112;DHT22;13092;51.996;4.458;2022-07-21T02:46:28;21.90;99.90
25112;DHT22;13092;51.996;4.458;2022-07-21T02:48:57;21.90;99.90
25112;DHT22;13092;51.996;4.458;2022-07-21T02:51:25;21.90;99.90
25112;DHT22;13092;51.996;4.458;2022-07-21T02:53:53;21.90;99.90
25112;DHT22;13092;51.996;4.458;2022-07-21T02:56:22;22.00;99.90
25112;DHT22;13092;51.996;4.458;2022-07-21T02:58:50;21.90;99.90
25112;DHT22;13092;51.996;4.458;2022-07-21T03:01:20;21.90;99.90
25112;DHT22;13092;51.996;4.458;2022-07-21T03:03:48;21.80;99.90
25112;DHT22;13092;51.996;4.458;2022-07-21T03:06:17;21.90;99.90
25112;DHT22;13092;51.996;4.458;2022-07-21T03:08:45;21.80;99.90
25112;DHT22;13092;51.996;4.458;2022-07-21T03:11:13;21.80;99.90
25112;DHT22;13092;51.996;4.458;2022-07-21T03:13:41;21.80;99.90
25112;DHT22;13092;51.996;4.458;2022-07-21T03:16:09;21.80;99.90
25112;DHT22;13092;51.996;4.458;2022-07-21T03:18:39;21.80;99.90
25112;DHT22;13092;51.996;4.458;2022-07-21T03:21:08;21.80;99.90
25112;DHT22;13092;51.996;4.458;2022-07-21T03:23:37;21.90;99.90
25112;DHT22;13092;51.996;4.458;2022-07-21T03:26:06;21.80;99.90
25112;DHT22;13092;51.996;4.458;2022-07-21T03:28:34;21.80;99.90
25112;DHT22;13092;51.996;4.458;2022-07-21T03:31:03;21.80;99.90
25112;DHT22;13092;51.996;4.458;2022-07-21T03:33:31;21.80;99.90
25112;DHT22;13092;51.996;4.458;2022-07-21T03:36:02;21.80;99.90
25112;DHT22;13092;51.996;4.458;2022-07-21T03:38:30;21.80;99.90
25112;DHT22;13092;51.996;4.458;2022-07-21T03:40:58;21.70;99.90
25112;DHT22;13092;51.996;4.458;2022-07-21T03:43:27;21.70;99.90
25112;DHT22;13092;51.996;4.458;2022-07-21T03:45:55;21.70;99.90
25112;DHT22;13092;51.996;4.458;2022-07-21T03:48:23;21.70;99.90
25112;DHT22;13092;51.996;4.458;2022-07-21T03:50:51;21.70;99.90
25112;DHT22;13092;51.996;4.458;2022-07-21T03:53:20;21.60;99.90
25112;DHT22;13092;51.996;4.458;2022-07-21T03:55:49;21.70;99.90
25112;DHT22;13092;51.996;4.458;2022-07-21T03:58:19;21.70;99.90
25112;DHT22;13092;51.996;4.458;2022-07-21T04:00:47;21.80;99.90
25112;DHT22;13092;51.996;4.458;2022-07-21T04:03:15;21.70;99.90
25112;DHT22;13092;51.996;4.458;2022-07-21T04:05:44;21.70;99.90
25112;DHT22;13092;51.996;4.458;2022-07-21T04:08:12;21.70;99.90
25112;DHT22;13092;51.996;4.458;2022-07-21T04:10:43;21.70;99.90
25112;DHT22;13092;51.996;4.458;2022-07-21T04:13:12;21.70;99.90
25112;DHT22;13092;51.996;4.458;2022-07-21T04:15:41;21.70;99.90
25112;DHT22;13092;51.996;4.458;2022-07-21T04:18:10;21.80;99.90
25112;DHT22;13092;51.996;4.458;2022-07-21T04:20:38;21.60;99.90
25112;DHT22;13092;51.996;4.458;2022-07-21T04:23:08;21.70;99.90
25112;DHT22;13092;51.996;4.458;2022-07-21T04:25:37;21.60;99.90
25112;DHT22;13092;51.996;4.458;2022-07-21T04:28:07;21.70;99.90
25112;DHT22;13092;51.996;4.458;2022-07-21T04:30:35;21.70;99.90
25112;DHT22;13092;51.996;4.458;2022-07-21T04:33:04;21.70;99.90
25112;DHT22;13092;51.996;4.458;2022-07-21T04:35:33;21.60;99.90
25112;DHT22;13092;51.996;4.458;2022-07-21T04:38:02;21.60;99.90
25112;DHT22;13092;51.996;4.458;2022-07-21T04:40:30;21.60;99.90
25112;DHT22;13092;51.996;4.458;2022-07-21T04:42:58;21.60;99.90
25112;DHT22;13092;51.996;4.458;2022-07-21T04:45:28;21.60;99.90
25112;DHT22;13092;51.996;4.458;2022-07-21T04:48:02;21.60;99.90
25112;DHT22;13092;51.996;4.458;2022-07-21T04:50:30;21.50;99.90
25112;DHT22;13092;51.996;4.458;2022-07-21T04:53:02;21.40;99.90
25112;DHT22;13092;51.996;4.458;2022-07-21T04:55:33;21.40;99.90
25112;DHT22;13092;51.996;4.458;2022-07-21T04:58:01;21.30;99.90
25112;DHT22;13092;51.996;4.458;2022-07-21T05:00:30;21.10;99.90
25112;DHT22;13092;51.996;4.458;2022-07-21T05:02:59;21.00;99.90
25112;DHT22;13092;51.996;4.458;2022-07-21T05:05:28;20.90;99.90
25112;DHT22;13092;51.996;4.458;2022-07-21T05:07:58;20.80;99.90
25112;DHT22;13092;51.996;4.458;2022-07-21T05:10:26;20.80;99.90
25112;DHT22;13092;51.996;4.458;2022-07-21T05:12:54;20.80;99.90
25112;DHT22;13092;51.996;4.458;2022-07-21T05:15:23;20.70;99.90
25112;DHT22;13092;51.996;4.458;2022-07-21T05:17:52;20.70;99.90
25112;DHT22;13092;51.996;4.458;2022-07-21T05:20:21;20.70;99.90
25112;DHT22;13092;51.996;4.458;2022-07-21T05:22:49;20.70;99.90
25112;DHT22;13092;51.996;4.458;2022-07-21T05:25:17;20.60;99.90
25112;DHT22;13092;51.996;4.458;2022-07-21T05:27:45;20.60;99.90
25112;DHT22;13092;51.996;4.458;2022-07-21T05:30:13;20.50;99.90
25112;DHT22;13092;51.996;4.458;2022-07-21T05:32:44;20.50;99.90
25112;DHT22;13092;51.996;4.458;2022-07-21T05:35:16;20.40;99.90
25112;DHT22;13092;51.996;4.458;2022-07-21T05:37:44;20.50;99.90
25112;DHT22;13092;51.996;4.458;2022-07-21T05:40:14;20.50;99.90
25112;DHT22;13092;51.996;4.458;2022-07-21T05:42:42;20.50;99.90
25112;DHT22;13092;51.996;4.458;2022-07-21T05:45:11;20.40;99.90
25112;DHT22;13092;51.996;4.458;2022-07-21T05:47:42;20.30;99.90
25112;DHT22;13092;51.996;4.458;2022-07-21T05:50:11;20.20;99.90
25112;DHT22;13092;51.996;4.458;2022-07-21T05:52:41;20.20;99.90
25112;DHT22;13092;51.996;4.458;2022-07-21T05:55:09;20.10;99.90
25112;DHT22;13092;51.996;4.458;2022-07-21T05:57:39;20.10;99.90
25112;DHT22;13092;51.996;4.458;2022-07-21T06:00:13;20.10;99.90
25112;DHT22;13092;51.996;4.458;2022-07-21T06:02:45;20.10;99.90
25112;DHT22;13092;51.996;4.458;2022-07-21T06:05:17;20.00;99.90
25112;DHT22;13092;51.996;4.458;2022-07-21T06:07:48;20.10;99.90
25112;DHT22;13092;51.996;4.458;2022-07-21T06:10:17;20.10;99.90
25112;DHT22;13092;51.996;4.458;2022-07-21T06:12:49;20.00;99.90
25112;DHT22;13092;51.996;4.458;2022-07-21T06:15:17;20.00;99.90
25112;DHT22;13092;51.996;4.458;2022-07-21T06:17:47;20.00;99.90
25112;DHT22;13092;51.996;4.458;2022-07-21T06:20:15;19.90;99.90
25112;DHT22;13092;51.996;4.458;2022-07-21T06:22:45;19.90;99.90
25112;DHT22;13092;51.996;4.458;2022-07-21T06:25:15;19.90;99.90
25112;DHT22;13092;51.996;4.458;2022-07-21T06:27:43;19.80;99.90
25112;DHT22;13092;51.996;4.458;2022-07-21T06:30:12;19.90;99.90
25112;DHT22;13092;51.996;4.458;2022-07-21T06:32:40;19.90;99.90
25112;DHT22;13092;51.996;4.458;2022-07-21T06:35:09;19.90;99.90
25112;DHT22;13092;51.996;4.458;2022-07-21T06:37:44;19.80;99.90
25112;DHT22;13092;51.996;4.458;2022-07-21T06:40:14;19.90;99.90
25112;DHT22;13092;51.996;4.458;2022-07-21T06:42:43;19.90;99.90
25112;DHT22;13092;51.996;4.458;2022-07-21T06:45:31;19.80;99.90
25112;DHT22;13092;51.996;4.458;2022-07-21T06:48:01;19.90;99.90
25112;DHT22;13092;51.996;4.458;2022-07-21T06:50:29;19.80;99.90
25112;DHT22;13092;51.996;4.458;2022-07-21T06:52:58;19.90;99.90
25112;DHT22;13092;51.996;4.458;2022-07-21T06:55:28;19.90;99.90
25112;DHT22;13092;51.996;4.458;2022-07-21T06:57:56;19.80;99.90
25112;DHT22;13092;51.996;4.458;2022-07-21T07:00:25;19.80;99.90
25112;DHT22;13092;51.996;4.458;2022-07-21T07:02:53;19.70;99.90
25112;DHT22;13092;51.996;4.458;2022-07-21T07:05:21;19.70;99.90
25112;DHT22;13092;51.996;4.458;2022-07-21T07:07:52;19.70;99.90
25112;DHT22;13092;51.996;4.458;2022-07-21T07:10:20;19.70;99.90
25112;DHT22;13092;51.996;4.458;2022-07-21T07:12:50;19.80;99.90
25112;DHT22;13092;51.996;4.458;2022-07-21T07:15:40;19.70;99.90
25112;DHT22;13092;51.996;4.458;2022-07-21T07:18:09;19.70;99.90
25112;DHT22;13092;51.996;4.458;2022-07-21T07:20:40;19.60;99.90
25112;DHT22;13092;51.996;4.458;2022-07-21T07:23:08;19.60;99.90
25112;DHT22;13092;51.996;4.458;2022-07-21T07:25:37;19.60;99.90
25112;DHT22;13092;51.996;4.458;2022-07-21T07:28:07;19.70;99.90
25112;DHT22;13092;51.996;4.458;2022-07-21T07:30:36;19.60;99.90
25112;DHT22;13092;51.996;4.458;2022-07-21T07:33:04;19.60;99.90
25112;DHT22;13092;51.996;4.458;2022-07-21T07:35:32;19.60;99.90
25112;DHT22;13092;51.996;4.458;2022-07-21T07:38:01;19.50;99.90
25112;DHT22;13092;51.996;4.458;2022-07-21T07:40:29;19.50;99.90
25112;DHT22;13092;51.996;4.458;2022-07-21T07:42:58;19.50;99.90
25112;DHT22;13092;51.996;4.458;2022-07-21T07:45:40;19.50;99.90
25112;DHT22;13092;51.996;4.458;2022-07-21T07:48:09;19.40;99.90
25112;DHT22;13092;51.996;4.458;2022-07-21T07:50:37;19.50;99.90
25112;DHT22;13092;51.996;4.458;2022-07-21T07:53:06;19.60;99.90
25112;DHT22;13092;51.996;4.458;2022-07-21T07:55:34;19.50;99.90
25112;DHT22;13092;51.996;4.458;2022-07-21T07:58:02;19.60;99.90
25112;DHT22;13092;51.996;4.458;2022-07-21T08:00:31;19.60;99.90
25112;DHT22;13092;51.996;4.458;2022-07-21T08:03:21;19.60;99.90
25112;DHT22;13092;51.996;4.458;2022-07-21T08:05:49;19.60;99.90
25112;DHT22;13092;51.996;4.458;2022-07-21T08:08:20;19.50;99.90
25112;DHT22;13092;51.996;4.458;2022-07-21T08:10:48;19.60;99.90
25112;DHT22;13092;51.996;4.458;2022-07-21T08:13:18;19.60;99.90
25112;DHT22;13092;51.996;4.458;2022-07-21T08:15:47;19.60;99.90
25112;DHT22;13092;51.996;4.458;2022-07-21T08:18:16;19.60;99.90
25112;DHT22;13092;51.996;4.458;2022-07-21T08:20:47;19.50;99.90
25112;DHT22;13092;51.996;4.458;2022-07-21T08:23:16;19.60;99.90
25112;DHT22;13092;51.996;4.458;2022-07-21T08:25:47;19.50;99.90
25112;DHT22;13092;51.996;4.458;2022-07-21T08:28:15;19.40;99.90
25112;DHT22;13092;51.996;4.458;2022-07-21T08:30:43;19.40;99.90
25112;DHT22;13092;51.996;4.458;2022-07-21T08:33:12;19.30;99.90
25112;DHT22;13092;51.996;4.458;2022-07-21T08:35:40;19.40;99.90
25112;DHT22;13092;51.996;4.458;2022-07-21T08:38:10;19.30;99.90
25112;DHT22;13092;51.996;4.458;2022-07-21T08:40:41;19.30;99.90
25112;DHT22;13092;51.996;4.458;2022-07-21T08:43:13;19.30;99.90
25112;DHT22;13092;51.996;4.458;2022-07-21T08:45:42;19.30;99.90
25112;DHT22;13092;51.996;4.458;2022-07-21T08:48:10;19.40;99.90
25112;DHT22;13092;51.996;4.458;2022-07-21T08:50:41;19.20;99.90
25112;DHT22;13092;51.996;4.458;2022-07-21T08:53:11;19.30;99.90
25112;DHT22;13092;51.996;4.458;2022-07-21T08:55:39;19.20;99.90
25112;DHT22;13092;51.996;4.458;2022-07-21T08:58:11;19.40;99.90
25112;DHT22;13092;51.996;4.458;2022-07-21T09:00:41;19.60;99.90
25112;DHT22;13092;51.996;4.458;2022-07-21T09:03:15;19.80;99.90
25112;DHT22;13092;51.996;4.458;2022-07-21T09:06:03;20.00;99.90
25112;DHT22;13092;51.996;4.458;2022-07-21T09:08:35;20.00;99.90
25112;DHT22;13092;51.996;4.458;2022-07-21T09:11:17;20.00;99.90
25112;DHT22;13092;51.996;4.458;2022-07-21T09:13:48;20.10;99.90
25112;DHT22;13092;51.996;4.458;2022-07-21T09:16:36;20.10;99.90
25112;DHT22;13092;51.996;4.458;2022-07-21T09:19:05;20.00;99.90
25112;DHT22;13092;51.996;4.458;2022-07-21T09:21:36;20.00;99.90
25112;DHT22;13092;51.996;4.458;2022-07-21T09:24:17;19.90;99.90
25112;DHT22;13092;51.996;4.458;2022-07-21T09:27:07;19.80;99.90
25112;DHT22;13092;51.996;4.458;2022-07-21T09:29:40;19.70;99.90
25112;DHT22;13092;51.996;4.458;2022-07-21T09:32:13;19.70;99.90
25112;DHT22;13092;51.996;4.458;2022-07-21T09:34:42;19.60;99.90
25112;DHT22;13092;51.996;4.458;2022-07-21T09:37:10;19.60;99.90
25112;DHT22;13092;51.996;4.458;2022-07-21T09:39:47;19.70;99.90
25112;DHT22;13092;51.996;4.458;2022-07-21T09:42:19;19.50;99.90
25112;DHT22;13092;51.996;4.458;2022-07-21T09:44:49;19.50;99.90
25112;DHT22;13092;51.996;4.458;2022-07-21T09:47:20;19.50;99.90
25112;DHT22;13092;51.996;4.458;2022-07-21T09:49:49;19.40;99.90
25112;DHT22;13092;51.996;4.458;2022-07-21T09:52:42;19.40;99.90
25112;DHT22;13092;51.996;4.458;2022-07-21T09:55:14;19.40;99.90
25112;DHT22;13092;51.996;4.458;2022-07-21T09:57:44;19.40;99.90
25112;DHT22;13092;51.996;4.458;2022-07-21T10:00:15;19.30;99.90
25112;DHT22;13092;51.996;4.458;2022-07-21T10:02:49;19.30;99.90
25112;DHT22;13092;51.996;4.458;2022-07-21T10:05:19;19.30;99.90
25112;DHT22;13092;51.996;4.458;2022-07-21T10:07:57;19.30;99.90
25112;DHT22;13092;51.996;4.458;2022-07-21T10:10:34;19.40;99.90
25112;DHT22;13092;51.996;4.458;2022-07-21T10:13:23;19.40;99.90
25112;DHT22;13092;51.996;4.458;2022-07-21T10:15:53;19.40;99.90
25112;DHT22;13092;51.996;4.458;2022-07-21T10:18:24;19.40;99.90
25112;DHT22;13092;51.996;4.458;2022-07-21T10:20:57;19.40;99.90
25112;DHT22;13092;51.996;4.458;2022-07-21T10:23:34;19.50;99.90
25112;DHT22;13092;51.996;4.458;2022-07-21T10:26:05;19.40;99.90
25112;DHT22;13092;51.996;4.458;2022-07-21T10:28:34;19.60;99.90
25112;DHT22;13092;51.996;4.458;2022-07-21T10:31:16;19.80;99.90
25112;DHT22;13092;51.996;4.458;2022-07-21T10:34:00;19.80;99.90
25112;DHT22;13092;51.996;4.458;2022-07-21T10:36:45;19.80;99.90
25112;DHT22;13092;51.996;4.458;2022-07-21T10:39:27;19.70;99.90
25112;DHT22;13092;51.996;4.458;2022-07-21T10:41:57;19.60;99.90
25112;DHT22;13092;51.996;4.458;2022-07-21T10:44:42;19.60;99.90
25112;DHT22;13092;51.996;4.458;2022-07-21T10:47:12;19.60;99.90
25112;DHT22;13092;51.996;4.458;2022-07-21T10:49:44;19.70;99.90
25112;DHT22;13092;51.996;4.458;2022-07-21T10:55:19;19.70;99.90
25112;DHT22;13092;51.996;4.458;2022-07-21T10:58:13;19.70;99.90
25112;DHT22;13092;51.996;4.458;2022-07-21T11:00:46;19.80;99.90
25112;DHT22;13092;51.996;4.458;2022-07-21T11:03:25;19.70;99.90
25112;DHT22;13092;51.996;4.458;2022-07-21T11:06:16;19.60;99.90
25112;DHT22;13092;51.996;4.458;2022-07-21T11:09:09;19.70;99.90
25112;DHT22;13092;51.996;4.458;2022-07-21T11:11:39;19.70;99.90
25112;DHT22;13092;51.996;4.458;2022-07-21T11:14:37;19.70;99.90
25112;DHT22;13092;51.996;4.458;2022-07-21T11:17:05;19.60;99.90
25112;DHT22;13092;51.996;4.458;2022-07-21T11:19:42;19.50;99.90
25112;DHT22;13092;51.996;4.458;2022-07-21T11:22:14;19.40;99.90
25112;DHT22;13092;51.996;4.458;2022-07-21T11:24:48;19.40;99.90
25112;DHT22;13092;51.996;4.458;2022-07-21T11:27:19;19.30;99.90
25112;DHT22;13092;51.996;4.458;2022-07-21T11:29:53;19.30;99.90
25112;DHT22;13092;51.996;4.458;2022-07-21T11:32:22;19.30;99.90
25112;DHT22;13092;51.996;4.458;2022-07-21T11:34:52;19.30;99.90
25112;DHT22;13092;51.996;4.458;2022-07-21T11:37:28;19.40;99.90
25112;DHT22;13092;51.996;4.458;2022-07-21T11:40:04;19.30;99.90
25112;DHT22;13092;51.996;4.458;2022-07-21T11:42:33;19.30;99.90
25112;DHT22;13092;51.996;4.458;2022-07-21T11:45:04;19.30;99.90
25112;DHT22;13092;51.996;4.458;2022-07-21T11:47:33;19.30;99.90
25112;DHT22;13092;51.996;4.458;2022-07-21T11:50:04;19.30;99.90
25112;DHT22;13092;51.996;4.458;2022-07-21T11:52:35;19.30;99.90
25112;DHT22;13092;51.996;4.458;2022-07-21T11:55:06;19.10;99.90
25112;DHT22;13092;51.996;4.458;2022-07-21T11:57:41;19.10;99.90
25112;DHT22;13092;51.996;4.458;2022-07-21T12:00:13;19.10;99.90
25112;DHT22;13092;51.996;4.458;2022-07-21T12:02:48;19.10;99.90
25112;DHT22;13092;51.996;4.458;2022-07-21T12:05:16;19.30;99.90
25112;DHT22;13092;51.996;4.458;2022-07-21T12:07:46;18.90;99.90
25112;DHT22;13092;51.996;4.458;2022-07-21T12:10:22;19.10;99.90
25112;DHT22;13092;51.996;4.458;2022-07-21T12:12:51;19.00;99.90
25112;DHT22;13092;51.996;4.458;2022-07-21T12:15:23;19.00;99.90
25112;DHT22;13092;51.996;4.458;2022-07-21T12:17:58;19.10;99.90
25112;DHT22;13092;51.996;4.458;2022-07-21T12:20:29;19.00;99.90
25112;DHT22;13092;51.996;4.458;2022-07-21T12:23:02;19.10;99.90
25112;DHT22;13092;51.996;4.458;2022-07-21T12:25:34;19.20;99.90
25112;DHT22;13092;51.996;4.458;2022-07-21T12:28:15;19.10;99.90
25112;DHT22;13092;51.996;4.458;2022-07-21T12:30:54;19.10;99.90
25112;DHT22;13092;51.996;4.458;2022-07-21T12:33:28;19.30;99.90
25112;DHT22;13092;51.996;4.458;2022-07-21T12:35:59;19.30;99.90
25112;DHT22;13092;51.996;4.458;2022-07-21T12:38:35;19.30;99.90
25112;DHT22;13092;51.996;4.458;2022-07-21T12:41:05;19.30;99.90
25112;DHT22;13092;51.996;4.458;2022-07-21T12:43:54;19.20;99.90
25112;DHT22;13092;51.996;4.458;2022-07-21T12:46:30;19.10;99.90
25112;DHT22;13092;51.996;4.458;2022-07-21T12:49:05;19.00;99.90
25112;DHT22;13092;51.996;4.458;2022-07-21T12:51:38;19.10;99.90
25112;DHT22;13092;51.996;4.458;2022-07-21T12:54:09;19.10;99.90
25112;DHT22;13092;51.996;4.458;2022-07-21T12:56:37;19.10;99.90
25112;DHT22;13092;51.996;4.458;2022-07-21T12:59:05;19.10;99.90
25112;DHT22;13092;51.996;4.458;2022-07-21T13:01:35;19.10;99.90
25112;DHT22;13092;51.996;4.458;2022-07-21T13:04:05;19.10;99.90
25112;DHT22;13092;51.996;4.458;2022-07-21T13:06:34;19.10;99.90
25112;DHT22;13092;51.996;4.458;2022-07-21T13:09:03;19.10;99.90
25112;DHT22;13092;51.996;4.458;2022-07-21T13:11:33;19.10;99.90
25112;DHT22;13092;51.996;4.458;2022-07-21T13:14:01;18.90;99.90
25112;DHT22;13092;51.996;4.458;2022-07-21T13:16:31;18.80;99.90
25112;DHT22;13092;51.996;4.458;2022-07-21T13:19:03;19.00;99.90
25112;DHT22;13092;51.996;4.458;2022-07-21T13:21:31;18.90;99.90
25112;DHT22;13092;51.996;4.458;2022-07-21T13:24:02;19.00;99.90
25112;DHT22;13092;51.996;4.458;2022-07-21T13:26:31;19.00;99.90
25112;DHT22;13092;51.996;4.458;2022-07-21T13:28:59;19.00;99.90
25112;DHT22;13092;51.996;4.458;2022-07-21T13:31:29;19.00;99.90
25112;DHT22;13092;51.996;4.458;2022-07-21T13:34:00;19.10;99.90
25112;DHT22;13092;51.996;4.458;2022-07-21T13:36:29;19.00;99.90
25112;DHT22;13092;51.996;4.458;2022-07-21T13:38:57;19.10;99.90
25112;DHT22;13092;51.996;4.458;2022-07-21T13:41:45;19.20;99.90
25112;DHT22;13092;51.996;4.458;2022-07-21T13:44:34;19.10;99.90
25112;DHT22;13092;51.996;4.458;2022-07-21T13:47:04;19.10;99.90
25112;DHT22;13092;51.996;4.458;2022-07-21T13:49:34;19.10;99.90
25112;DHT22;13092;51.996;4.458;2022-07-21T13:52:02;19.00;99.90
25112;DHT22;13092;51.996;4.458;2022-07-21T13:54:30;19.00;99.90
25112;DHT22;13092;51.996;4.458;2022-07-21T13:56:59;19.00;99.90
25112;DHT22;13092;51.996;4.458;2022-07-21T13:59:27;19.10;99.90
25112;DHT22;13092;51.996;4.458;2022-07-21T14:01:56;19.00;99.90
25112;DHT22;13092;51.996;4.458;2022-07-21T14:04:24;19.10;99.90
25112;DHT22;13092;51.996;4.458;2022-07-21T14:06:54;18.90;99.90
25112;DHT22;13092;51.996;4.458;2022-07-21T14:09:24;19.20;99.90
25112;DHT22;13092;51.996;4.458;2022-07-21T14:11:52;19.00;99.90
25112;DHT22;13092;51.996;4.458;2022-07-21T14:14:22;19.00;99.90
25112;DHT22;13092;51.996;4.458;2022-07-21T14:16:53;19.10;99.90
25112;DHT22;13092;51.996;4.458;2022-07-21T14:19:21;19.20;99.90
25112;DHT22;13092;51.996;4.458;2022-07-21T14:21:50;19.00;99.90
25112;DHT22;13092;51.996;4.458;2022-07-21T14:24:21;19.10;99.90
25112;DHT22;13092;51.996;4.458;2022-07-21T14:27:06;19.10;99.90
25112;DHT22;13092;51.996;4.458;2022-07-21T14:29:40;19.10;99.90
25112;DHT22;13092;51.996;4.458;2022-07-21T14:32:10;19.00;99.90
25112;DHT22;13092;51.996;4.458;2022-07-21T14:34:41;19.10;99.90
25112;DHT22;13092;51.996;4.458;2022-07-21T14:37:11;19.10;99.90
25112;DHT22;13092;51.996;4.458;2022-07-21T14:39:40;19.00;99.90
25112;DHT22;13092;51.996;4.458;2022-07-21T14:42:09;19.00;99.90
25112;DHT22;13092;51.996;4.458;2022-07-21T14:44:37;19.00;99.90
25112;DHT22;13092;51.996;4.458;2022-07-21T14:47:06;19.10;99.90
25112;DHT22;13092;51.996;4.458;2022-07-21T14:49:35;19.10;99.90
25112;DHT22;13092;51.996;4.458;2022-07-21T14:52:04;19.10;99.90
25112;DHT22;13092;51.996;4.458;2022-07-21T14:54:32;19.00;99.90
25112;DHT22;13092;51.996;4.458;2022-07-21T14:57:02;19.10;99.90
25112;DHT22;13092;51.996;4.458;2022-07-21T14:59:36;19.10;99.90
25112;DHT22;13092;51.996;4.458;2022-07-21T15:02:06;19.10;99.90
25112;DHT22;13092;51.996;4.458;2022-07-21T15:04:41;19.20;99.90
25112;DHT22;13092;51.996;4.458;2022-07-21T15:07:10;19.20;99.90
25112;DHT22;13092;51.996;4.458;2022-07-21T15:09:38;19.10;99.90
25112;DHT22;13092;51.996;4.458;2022-07-21T15:12:08;19.10;99.90
25112;DHT22;13092;51.996;4.458;2022-07-21T15:14:38;19.10;99.90
25112;DHT22;13092;51.996;4.458;2022-07-21T15:17:06;19.10;99.90
25112;DHT22;13092;51.996;4.458;2022-07-21T15:19:39;19.10;99.90
25112;DHT22;13092;51.996;4.458;2022-07-21T15:22:07;19.10;99.90
25112;DHT22;13092;51.996;4.458;2022-07-21T15:24:36;19.10;99.90
25112;DHT22;13092;51.996;4.458;2022-07-21T15:27:04;19.20;99.90
25112;DHT22;13092;51.996;4.458;2022-07-21T15:29:34;19.30;99.90
25112;DHT22;13092;51.996;4.458;2022-07-21T15:32:05;19.30;99.90
25112;DHT22;13092;51.996;4.458;2022-07-21T15:34:33;19.40;99.90
25112;DHT22;13092;51.996;4.458;2022-07-21T15:37:01;19.40;99.90
25112;DHT22;13092;51.996;4.458;2022-07-21T15:39:30;19.40;99.90
25112;DHT22;13092;51.996;4.458;2022-07-21T15:41:58;19.40;99.90
25112;DHT22;13092;51.996;4.458;2022-07-21T15:44:26;19.30;99.90
25112;DHT22;13092;51.996;4.458;2022-07-21T15:46:56;19.30;99.90
25112;DHT22;13092;51.996;4.458;2022-07-21T15:49:24;19.30;99.90
25112;DHT22;13092;51.996;4.458;2022-07-21T15:51:52;19.20;99.90
25112;DHT22;13092;51.996;4.458;2022-07-21T15:54:21;19.30;99.90
25112;DHT22;13092;51.996;4.458;2022-07-21T15:57:09;19.40;99.90